Flight Track Log - Related Links

Times and Time Zones

All times are in EDT time to prevent confusion due to time zone crossing. See the CPZ5714 flight status page for this flight to view local times or setup timezone preferences in your user account.

Time Position Orientation Groundspeed Altitude Reporting Facility
EDT Latitude Longitude Course Direction KTS MPH feet Rate Location/Type
Sun 08:45:03 PM 44.8667 -93.1167 70° East 203 234 2,400  Level Minneapolis TRACON
Sun 08:46:25 PM 44.9067 -93.0236 59° Northeast 275 316 5,600 2,167 Climbing Minneapolis Center
Sun 08:47:27 PM 44.9814 -92.9792 23° Northeast 291 335 7,600 2,419 Climbing Minneapolis Center
Sun 08:48:29 PM 45.0567 -92.9311 24° Northeast 297 342 10,600 2,226 Climbing Minneapolis Center
Sun 08:49:31 PM 45.1236 -92.8519 40° Northeast 334 384 12,200 1,645 Climbing Minneapolis Center
Sun 08:50:00 PM 45.1168 -92.3164 70° East  Level FlightAware Approximate
Sun 08:50:33 PM 45.1647 -92.7225 66° East 358 412 14,000  Level Minneapolis Center
Sun 08:51:35 PM 45.2167 -92.5617 65° Northeast 372 428 16,700 2,177 Climbing Minneapolis Center
Sun 08:52:37 PM 45.2597 -92.4253 66° East 377 434 18,500 1,694 Climbing Minneapolis Center
Sun 08:53:39 PM 45.3031 -92.2828 67° East 389 448 20,200 1,645 Climbing Minneapolis Center
Sun 08:54:41 PM 45.3289 -92.1239 77° East 404 465 21,900 1,355 Climbing Minneapolis Center
Sun 08:55:43 PM 45.3497 -91.9594 80° East 419 482 23,000 871 Climbing Minneapolis Center
Sun 08:56:45 PM 45.3703 -91.7928 80° East 427 491 23,700 1,152 Climbing Minneapolis Center
Sun 08:57:48 PM 45.3978 -91.5897 79° East 434 499 25,400 1,488 Climbing Minneapolis Center
Sun 08:58:50 PM 45.4194 -91.4161 80° East 442 509 26,800 1,210 Climbing Minneapolis Center
Sun 08:59:52 PM 45.4464 -91.2258 79° East 448 516 27,900 1,016 Climbing Minneapolis Center
Sun 09:00:54 PM 45.4639 -91.0469 82° East 454 522 28,900 1,065 Climbing Minneapolis Center
Sun 09:01:56 PM 45.4475 -90.8639 97° East 458 527 30,100 1,113 Climbing Minneapolis Center
Sun 09:02:58 PM 45.4317 -90.6833 97° East 462 532 31,200 968 Climbing Minneapolis Center
Sun 09:04:00 PM 45.4150 -90.5019 97° East 463 533 32,100 774 Climbing Minneapolis Center
Sun 09:05:02 PM 45.3981 -90.3206 98° East 465 535 32,800 1,065 Climbing Minneapolis Center
Sun 09:06:04 PM 45.3767 -90.1044 98° East 462 532 34,300 1,016 Climbing Minneapolis Center
Sun 09:07:06 PM 45.3603 -89.9286 97° East 453 521 34,900 339 Climbing Minneapolis Center
Sun 09:08:08 PM 45.3428 -89.7525 98° East 451 519 35,000 48 Climbing Minneapolis Center
Sun 09:09:10 PM 45.3247 -89.5792 98° East 449 517 35,000  Level Minneapolis Center
Sun 09:10:12 PM 45.3072 -89.4072 98° East 444 511 35,000  Level Minneapolis Center
Sun 09:11:14 PM 45.2861 -89.2017 98° East 441 507 35,000  Level Minneapolis Center
Sun 09:12:16 PM 45.2675 -89.0314 99° East 441 507 35,000  Level Minneapolis Center
Sun 09:13:18 PM 45.2489 -88.8600 99° East 440 506 35,000  Level Minneapolis Center
Sun 09:14:20 PM 45.2303 -88.6881 99° East 443 510 35,000  Level Minneapolis Center
Sun 09:15:23 PM 45.2108 -88.5106 99° East 444 511 35,000  Level Minneapolis Center
Sun 09:16:25 PM 45.1911 -88.3386 99° East 443 510 35,000  Level Minneapolis Center
Sun 09:17:27 PM 45.1714 -88.1669 99° East 444 511 35,000  Level Minneapolis Center
Sun 09:18:29 PM 45.1475 -87.9617 99° East 443 510 35,000  Level Minneapolis Center
Sun 09:19:31 PM 45.1281 -87.7900 99° East 443 510 35,000  Level Minneapolis Center
Sun 09:20:33 PM 45.1067 -87.6164 100° East 447 514 35,000  Level Minneapolis Center
Sun 09:21:35 PM 45.0867 -87.4444 99° East 446 513 35,000  Level Minneapolis Center
Sun 09:22:37 PM 45.0644 -87.2708 100° East 449 517 35,000  Level Minneapolis Center
Sun 09:23:39 PM 45.0436 -87.0994 100° East 445 512 35,000  Level Minneapolis Center
Sun 09:24:41 PM 45.0183 -86.8925 100° East 446 513 35,000  Level Minneapolis Center
Sun 09:25:43 PM 44.9989 -86.7481 101° East 447 514 35,000  Level Minneapolis Center
Sun 09:26:45 PM 44.9725 -86.5400 100° East 448 516 35,000  Level Minneapolis Center
Sun 09:27:47 PM 44.9503 -86.3689 100° East 446 513 35,000  Level Minneapolis Center
Sun 09:28:48 PM 44.9269 -86.1994 101° East 442 509 35,000  Level Minneapolis Center
Sun 09:29:50 PM 44.9053 -86.0286 100° East 442 509 35,000  Level Minneapolis Center
Sun 09:30:52 PM 44.8825 -85.8578 101° East 444 511 35,000  Level Minneapolis Center
Sun 09:31:54 PM 44.8594 -85.6883 101° East 443 510 35,000  Level Minneapolis Center
Sun 09:33:28 PM 44.8000 -85.4000 106° East 440 506 35,000  Level Toronto Center
Sun 09:34:28 PM 44.7833 -85.2333 98° East 440 506 35,000  Level Toronto Center
Sun 09:34:59 PM 44.7817 -85.1400 91° East 442 509 35,000  Level Minneapolis Center
Sun 09:36:01 PM 44.7575 -84.9714 101° East 440 506 35,000  Level Minneapolis Center
Sun 09:37:02 PM 44.7339 -84.8033 101° East 440 506 35,000  Level Minneapolis Center
Sun 09:38:04 PM 44.7086 -84.6350 102° East 440 506 35,000  Level Minneapolis Center
Sun 09:39:06 PM 44.6844 -84.4678 101° East 438 504 35,000  Level Minneapolis Center
Sun 09:40:07 PM 44.6586 -84.3006 102° East 439 505 35,000  Level Minneapolis Center
Sun 09:41:09 PM 44.6336 -84.1322 102° East 440 506 35,000  Level Minneapolis Center
Sun 09:42:10 PM 44.6036 -83.9319 102° East 439 505 35,000  Level Minneapolis Center
Sun 09:43:12 PM 44.5772 -83.7658 103° East 439 505 35,000  Level Minneapolis Center
Sun 09:44:14 PM 44.5522 -83.6000 102° East 437 503 35,000  Level Minneapolis Center
Sun 09:45:15 PM 44.5258 -83.4350 103° East 436 502 35,000  Level Minneapolis Center
Sun 09:46:17 PM 44.4994 -83.2719 103° East 433 498 35,000  Level Minneapolis Center
Sun 09:47:18 PM 44.4739 -83.1089 102° East 431 496 35,000  Level Minneapolis Center
Sun 09:48:19 PM 44.4531 -82.9792 103° East 430 495 35,000  Level Minneapolis Center
Sun 09:49:21 PM 44.4150 -82.7503 103° East 431 496 35,000  Level Minneapolis Center
Sun 09:50:23 PM 44.3892 -82.5886 103° East 430 495 35,000  Level Minneapolis Center
Sun 09:51:24 PM 44.3600 -82.4292 104° East 428 493 35,000  Level Minneapolis Center
Sun 09:52:26 PM 44.3347 -82.2681 102° East 426 490 35,000  Level Minneapolis Center
Sun 09:53:28 PM 44.2667 -82.0833 117° Southeast 430 495 35,000  Level Toronto Center
Sun 09:54:28 PM 44.2333 -81.9333 107° East 430 495 35,000  Level Toronto Center
Sun 09:55:28 PM 44.2000 -81.7667 106° East 420 483 35,000  Level Toronto Center
Sun 09:56:28 PM 44.1667 -81.6333 109° East 420 483 35,000  Level Toronto Center
Sun 09:57:28 PM 44.1167 -81.4667 113° Southeast 430 495 35,000  Level Toronto Center
Sun 09:58:28 PM 44.0833 -81.3000 106° East 430 495 35,000  Level Toronto Center
Sun 09:59:28 PM 44.0500 -81.1667 109° East 430 495 35,000  Level Toronto Center
Sun 10:00:28 PM 44.0000 -81.0000 113° Southeast 430 495 35,000  Level Toronto Center
Sun 10:01:28 PM 43.9500 -80.8333 113° Southeast 430 495 35,000  Level Toronto Center
Sun 10:02:28 PM 43.9333 -80.6667 98° East 430 495 35,000  Level Toronto Center
Sun 10:03:28 PM 43.8833 -80.5167 115° Southeast 440 506 35,000  Level Toronto Center
Sun 10:04:28 PM 43.8500 -80.3500 105° East 440 506 35,000  Level Toronto Center
Sun 10:05:28 PM 43.8000 -80.2167 117° Southeast 440 506 35,000  Level Toronto Center
Sun 10:06:28 PM 43.7667 -80.0333 104° East 440 506 35,000  Level Toronto Center
Sun 10:07:28 PM 43.7167 -79.8833 115° Southeast 440 506 35,000  Level Toronto Center
Sun 10:08:28 PM 43.6833 -79.7333 107° East 450 518 35,000  Level Toronto Center
Sun 10:09:28 PM 43.6333 -79.5667 112° Southeast 450 518 35,000  Level Toronto Center
Sun 10:10:28 PM 43.6167 -79.3833 97° East 460 529 35,000  Level Toronto Center
Sun 10:11:28 PM 43.6000 -79.2000 97° East 460 529 35,000  Level Toronto Center
Sun 10:12:28 PM 43.5667 -79.0167 104° East 460 529 35,000  Level Toronto Center
Sun 10:13:28 PM 43.5500 -78.8500 98° East 470 541 35,000  Level Toronto Center
Sun 10:14:28 PM 43.5333 -78.6667 97° East 470 541 35,000  Level Toronto Center
Sun 10:15:28 PM 43.5000 -78.5000 105° East 470 541 35,000  Level Toronto Center
Sun 10:16:28 PM 43.4667 -78.3167 104° East 470 541 35,000  Level Toronto Center
Sun 10:17:18 PM 43.4656 -78.2150 91° East 470 541 35,000  Level Cleveland Center
Sun 10:18:17 PM 43.4408 -78.0358 101° East 470 541 35,000 -200 Level Cleveland Center
Sun 10:19:18 PM 43.4158 -77.8539 101° East 470 541 34,600 -595 Descending Cleveland Center
Sun 10:20:18 PM 43.3886 -77.6781 102° East 470 541 33,800 -809 Descending Cleveland Center
Sun 10:22:16 PM 43.3358 -77.3281 102° East 463 533 32,200 -804 Descending Boston Center
Sun 10:23:17 PM 43.3097 -77.1519 101° East 469 540 31,400 -793 Descending Boston Center
Sun 10:24:17 PM 43.2836 -76.9758 101° East 469 540 30,600 -793 Descending Boston Center
Sun 10:25:18 PM 43.2572 -76.7969 101° East 469 540 29,800 -793 Descending Boston Center
Sun 10:26:18 PM 43.2267 -76.6067 102° East 469 540 29,000 -403 Descending Boston Center
Sun 10:27:17 PM 43.1975 -76.4336 103° East 469 540 29,000  Level Boston Center
Sun 10:28:18 PM 43.1703 -76.2581 102° East 469 540 29,000  Level Boston Center
Sun 10:29:16 PM 43.1425 -76.0800 102° East 474 545 29,000  Level Boston Center
Sun 10:30:17 PM 43.1125 -75.9047 103° East 474 545 29,000 -500 Level Boston Center
Sun 10:31:16 PM 43.0844 -75.7294 102° East 474 545 28,000 -1,714 Descending Boston Center
Sun 10:32:16 PM 43.0597 -75.5719 102° East 474 545 25,600 -2,359 Descending Boston Center
Sun 10:33:41 PM 43.0200 -75.3425 103° East 451 519 22,300 -2,292 Descending Boston Center
Sun 10:34:40 PM 42.9944 -75.1881 103° East 433 498 20,100 -2,168 Descending Boston Center
Sun 10:35:40 PM 42.9669 -75.0364 104° East 420 483 18,000 -2,182 Descending Boston Center
Sun 10:36:19 PM 42.9503 -74.9336 102° East 403 464 16,500 -2,132 Descending Boston Center
Sun 10:36:56 PM 42.9336 -74.8478 105° East 380 437 15,300 -1,807 Descending Boston Center
Sun 10:37:42 PM 42.9167 -74.7564 104° East 375 432 14,000 -1,925 Descending Boston Center
Sun 10:38:42 PM 42.8925 -74.6081 102° East 375 432 11,900 -1,488 Descending Boston Center
Sun 10:39:43 PM 42.8717 -74.4911 104° East 356 410 11,000 -915 Descending Boston Center
Sun 10:40:40 PM 42.8489 -74.3631 104° East 330 380 10,100 -1,109 Descending Boston Center
Sun 10:41:42 PM 42.8317 -74.2633 103° East 306 352 8,800 -1,426 Descending Boston Center
Sun 10:42:42 PM 42.8086 -74.1411 104° East 300 345 7,200 -1,373 Descending Boston Center
Sun 10:43:40 PM 42.7764 -74.0667 121° Southeast 289 333 6,100 -1,220 Descending Boston Center
Sun 10:44:40 PM 42.7106 -74.0083 147° Southeast 262 302 4,800 -1,150 Descending Boston Center
Sun 10:45:40 PM 42.6531 -73.9531 145° Southeast 262 302 3,800 -893 Descending Boston Center
Sun 10:46:41 PM 42.6350 -73.8822 109° East 214 246 3,000 -936 Descending Boston Center
Sun 10:48:01 PM 42.6694 -73.8011 60° Northeast 186 214 1,600 -923 Descending Boston Center
Sun 10:49:04 PM 42.7111 -73.8078 353° North 142 163 800 -762 Descending Boston Center

Login

Don't have an account? Register now (free) for customized features, flight alerts, and more!